Time;durP1;ratioP1;P1;durP2;ratioP2;P2;SDS_P1;SDS_P2;PMS_P1;PMS_P2;Temp;Humidity;BMP_temperature;BMP_pressure;BME280_temperature;BME280_humidity;BME280_pressure;Samples;Min_cycle;Max_cycle;Signal;HPM_P1;HPM_P2
2024/01/11 00:01:46;;;;;;;30.85;17.73;;;;;;;-4.60;75.50;103166.25;5017586;28;20025;-54
2024/01/11 00:04:11;;;;;;;30.77;17.63;;;;;;;-4.61;75.11;103174.84;5017687;28;20025;-57
2024/01/11 00:06:41;;;;;;;27.45;16.65;;;;;;;-4.65;75.50;103161.84;5016587;28;20494;-55
2024/01/11 00:09:07;;;;;;;30.58;17.45;;;;;;;-4.67;75.88;103163.50;5017673;28;20076;-57
2024/01/11 00:11:32;;;;;;;28.35;16.77;;;;;;;-4.70;75.55;103158.22;5014382;28;20414;-55
2024/01/11 00:13:57;;;;;;;34.45;18.63;;;;;;;-4.73;75.14;103157.28;5018476;28;20026;-57
2024/01/11 00:16:22;;;;;;;31.75;17.90;;;;;;;-4.73;76.16;103158.19;5016726;28;20124;-56
2024/01/11 00:18:48;;;;;;;27.98;16.83;;;;;;;-4.75;76.40;103167.59;5016096;28;20052;-57
2024/01/11 00:21:13;;;;;;;29.63;16.83;;;;;;;-4.78;76.40;103164.97;5015878;28;20455;-55
2024/01/11 00:23:38;;;;;;;29.15;17.33;;;;;;;-4.76;76.79;103165.88;5018366;28;20029;-57
2024/01/11 00:26:04;;;;;;;28.98;17.30;;;;;;;-4.78;75.98;103164.06;5017450;28;20333;-57
2024/01/11 00:28:29;;;;;;;29.05;17.23;;;;;;;-4.79;76.01;103167.53;5020919;28;20108;-56
2024/01/11 00:30:54;;;;;;;31.70;16.83;;;;;;;-4.81;76.65;103170.06;5016284;28;20046;-55
2024/01/11 00:33:20;;;;;;;31.15;17.92;;;;;;;-4.84;76.68;103155.31;5015864;28;20026;-57
2024/01/11 00:35:45;;;;;;;29.88;17.55;;;;;;;-4.84;76.43;103162.22;5013976;28;20034;-57
2024/01/11 00:38:10;;;;;;;28.50;17.02;;;;;;;-4.87;76.59;103162.13;5019928;28;20479;-57
2024/01/11 00:40:35;;;;;;;29.65;17.95;;;;;;;-4.89;76.79;103164.69;5016326;28;20030;-58
2024/01/11 00:43:01;;;;;;;30.65;17.38;;;;;;;-4.90;76.98;103168.09;5020157;28;20014;-57
2024/01/11 00:45:26;;;;;;;29.60;18.20;;;;;;;-4.93;76.64;103165.47;5018200;28;20032;-56
2024/01/11 00:47:51;;;;;;;32.28;17.25;;;;;;;-4.93;77.24;103161.97;5020521;28;20034;-57
2024/01/11 00:50:16;;;;;;;32.30;17.55;;;;;;;-4.93;77.45;103159.38;5013888;28;20200;-56
2024/01/11 00:52:42;;;;;;;30.65;16.98;;;;;;;-4.96;77.64;103161.88;5018107;28;20033;-55
2024/01/11 00:55:07;;;;;;;30.60;17.55;;;;;;;-4.96;77.66;103165.38;5014863;28;20030;-55
2024/01/11 00:57:32;;;;;;;31.77;18.33;;;;;;;-4.99;77.39;103170.47;5012970;28;20394;-56
2024/01/11 00:59:58;;;;;;;33.55;17.85;;;;;;;-4.99;77.51;103172.19;5017469;28;20691;-53
2024/01/11 01:02:23;;;;;;;31.42;17.38;;;;;;;-5.03;77.34;103169.53;5017746;28;20034;-55
2024/01/11 01:04:48;;;;;;;28.70;17.45;;;;;;;-5.04;77.49;103166.91;5010577;28;20393;-54
2024/01/11 01:07:13;;;;;;;33.10;17.98;;;;;;;-5.07;77.80;103170.28;5014453;28;20033;-54
2024/01/11 01:09:39;;;;;;;34.20;18.17;;;;;;;-5.08;77.78;103165.94;5015005;28;20029;-57
2024/01/11 01:12:05;;;;;;;28.45;18.80;;;;;;;-5.08;78.55;103176.31;5017390;28;20583;-58
2024/01/11 01:14:30;;;;;;;31.13;16.83;;;;;;;-5.10;78.08;103172.78;5018017;28;20029;-58
2024/01/11 01:16:56;;;;;;;29.85;17.98;;;;;;;-5.11;78.17;103172.72;5022171;28;20068;-58
2024/01/11 01:19:21;;;;;;;29.80;17.67;;;;;;;-5.11;78.36;103175.31;5013828;28;20108;-58
2024/01/11 01:21:46;;;;;;;31.42;18.10;;;;;;;-5.12;78.51;103174.47;5017605;28;20053;-57
2024/01/11 01:24:12;;;;;;;32.45;18.60;;;;;;;-5.12;78.70;103181.38;5018831;28;20029;-55
2024/01/11 01:26:37;;;;;;;29.77;17.83;;;;;;;-5.13;78.68;103180.50;5016670;28;20029;-57
2024/01/11 01:29:02;;;;;;;31.60;18.10;;;;;;;-5.15;78.77;103189.91;5020223;28;20033;-57
2024/01/11 01:31:28;;;;;;;31.08;18.83;;;;;;;-5.16;78.77;103189.88;5012004;28;20030;-58
2024/01/11 01:33:53;;;;;;;32.40;18.65;;;;;;;-5.17;79.38;103195.91;5024367;28;20025;-57
2024/01/11 01:36:18;;;;;;;28.55;17.38;;;;;;;-5.19;79.12;103197.59;5017900;28;20022;-58
2024/01/11 01:38:44;;;;;;;30.15;17.77;;;;;;;-5.20;79.46;103188.94;5014618;28;20026;-56
2024/01/11 01:41:09;;;;;;;32.35;18.73;;;;;;;-5.20;79.67;103186.34;5021414;28;20034;-57
2024/01/11 01:43:34;;;;;;;31.27;18.17;;;;;;;-5.21;79.79;103203.59;5021847;28;20032;-56
2024/01/11 01:46:00;;;;;;;28.83;17.75;;;;;;;-5.21;79.45;103205.31;5018260;28;20120;-58
2024/01/11 01:48:26;;;;;;;29.60;17.67;;;;;;;-5.22;79.90;103211.31;5020266;28;20399;-56
2024/01/11 01:50:52;;;;;;;28.00;18.27;;;;;;;-5.23;80.41;103219.91;5020724;28;20054;-57
2024/01/11 01:53:22;;;;;;;30.42;18.38;;;;;;;-5.23;80.47;103212.16;5019614;28;20557;-57
2024/01/11 01:55:48;;;;;;;30.98;17.90;;;;;;;-5.24;80.69;103221.66;5021115;28;20116;-55
2024/01/11 01:58:15;;;;;;;32.53;18.15;;;;;;;-5.25;80.21;103221.59;5014614;28;20481;-57
2024/01/11 02:00:41;;;;;;;29.73;17.83;;;;;;;-5.27;79.92;103220.69;5019918;28;20033;-57
2024/01/11 02:03:08;;;;;;;30.20;18.85;;;;;;;-5.31;80.76;103226.59;5017305;28;20022;-58
2024/01/11 02:05:33;;;;;;;31.42;18.27;;;;;;;-5.31;80.81;103230.09;5019491;28;20026;-57
2024/01/11 02:08:03;;;;;;;30.63;18.08;;;;;;;-5.34;80.65;103227.41;5021419;28;20064;-57
2024/01/11 02:10:32;;;;;;;27.63;17.02;;;;;;;-5.34;80.51;103217.06;5014414;28;20586;-58
2024/01/11 02:12:58;;;;;;;32.65;19.52;;;;;;;-5.33;80.82;103223.09;5020013;28;20037;-58
2024/01/11 02:15:24;;;;;;;30.52;18.00;;;;;;;-5.35;81.16;103210.09;5023553;28;20077;-57
2024/01/11 02:17:49;;;;;;;28.92;17.73;;;;;;;-5.37;81.41;103198.84;5023944;28;20026;-57
2024/01/11 02:20:14;;;;;;;36.78;18.35;;;;;;;-5.37;80.83;103197.97;5025636;28;20395;-57
2024/01/11 02:22:42;;;;;;;28.63;17.40;;;;;;;-5.36;81.63;103203.19;5022707;28;20029;-57
2024/01/11 02:25:08;;;;;;;30.25;17.45;;;;;;;-5.36;80.64;103199.69;5015252;28;20022;-56
2024/01/11 02:27:49;;;;;;;32.15;18.30;;;;;;;-5.37;80.61;103195.38;5024894;28;20483;-57
2024/01/11 02:30:16;;;;;;;32.33;17.27;;;;;;;-5.42;81.32;103193.53;5023022;28;20065;-57
2024/01/11 02:32:44;;;;;;;29.90;16.75;;;;;;;-5.44;80.97;103207.28;5024710;28;20056;-57
2024/01/11 02:35:10;;;;;;;30.55;17.17;;;;;;;-5.46;81.39;103207.25;5016887;28;20032;-57
2024/01/11 02:37:37;;;;;;;29.83;17.42;;;;;;;-5.48;80.57;103208.00;5021665;28;20033;-57
2024/01/11 02:40:03;;;;;;;30.95;17.60;;;;;;;-5.49;80.75;103219.22;5021562;28;20109;-57
2024/01/11 02:42:28;;;;;;;31.23;18.75;;;;;;;-5.50;81.38;103220.03;5019032;28;20112;-58
2024/01/11 02:44:53;;;;;;;32.88;17.10;;;;;;;-5.52;80.85;103214.81;5023315;28;20029;-58
2024/01/11 02:47:18;;;;;;;31.17;17.90;;;;;;;-5.56;81.45;103207.81;5020710;28;20479;-58
2024/01/11 02:49:44;;;;;;;32.65;18.13;;;;;;;-5.58;81.36;103207.78;5020290;28;20044;-57
2024/01/11 02:52:09;;;;;;;34.83;18.52;;;;;;;-5.60;81.57;103217.19;5019353;28;20034;-57
2024/01/11 02:54:34;;;;;;;35.08;18.25;;;;;;;-5.62;82.00;103208.50;5024237;28;20083;-56
2024/01/11 02:57:00;;;;;;;28.20;18.15;;;;;;;-5.63;81.87;103211.03;5018300;28;20103;-58
2024/01/11 02:59:25;;;;;;;28.63;17.63;;;;;;;-5.62;81.41;103212.81;5021391;28;20021;-58
2024/01/11 03:01:50;;;;;;;32.03;18.58;;;;;;;-5.63;82.05;103211.03;5019594;28;20486;-58
2024/01/11 03:04:16;;;;;;;31.77;17.50;;;;;;;-5.64;81.92;103219.66;5020959;28;20534;-58
2024/01/11 03:06:42;;;;;;;31.02;17.85;;;;;;;-5.67;82.44;103215.25;5019362;28;20017;-58
2024/01/11 03:09:07;;;;;;;32.88;18.30;;;;;;;-5.69;81.73;103210.88;5020533;28;20391;-56
2024/01/11 03:11:32;;;;;;;34.70;18.25;;;;;;;-5.71;81.62;103209.94;5019383;28;20024;-57
2024/01/11 03:13:57;;;;;;;34.17;18.88;;;;;;;-5.72;81.65;103213.38;5023837;28;20034;-57
2024/01/11 03:16:23;;;;;;;33.60;17.17;;;;;;;-5.74;82.28;103213.34;5022509;28;20100;-57
2024/01/11 03:18:48;;;;;;;33.13;18.52;;;;;;;-5.74;82.81;103220.19;5022409;28;20022;-57
2024/01/11 03:21:13;;;;;;;31.17;18.05;;;;;;;-5.75;82.24;103219.34;5023825;28;20029;-58
2024/01/11 03:23:38;;;;;;;33.30;18.83;;;;;;;-5.78;81.72;103220.13;5019196;28;20344;-56
2024/01/11 03:26:04;;;;;;;31.58;18.45;;;;;;;-5.79;82.29;103230.44;5018088;28;20105;-58
2024/01/11 03:28:29;;;;;;;30.73;18.23;;;;;;;-5.81;81.97;103220.03;5021179;28;20037;-57
2024/01/11 03:30:54;;;;;;;34.67;19.00;;;;;;;-5.82;82.23;103215.69;5017820;28;20063;-57
2024/01/11 03:33:19;;;;;;;34.38;19.48;;;;;;;-5.84;82.52;103209.59;5024843;28;20549;-57
2024/01/11 03:35:45;;;;;;;31.52;18.95;;;;;;;-5.85;82.73;103206.97;5019088;28;20385;-57
2024/01/11 03:38:10;;;;;;;35.72;17.95;;;;;;;-5.84;82.75;103212.19;5021119;28;20060;-58
2024/01/11 03:40:36;;;;;;;30.83;18.65;;;;;;;-5.85;82.39;103212.13;5017830;28;20025;-57
2024/01/11 03:43:01;;;;;;;37.95;20.42;;;;;;;-5.87;82.34;103219.84;5020525;28;20468;-58
2024/01/11 03:45:26;;;;;;;33.67;19.30;;;;;;;-5.89;82.25;103211.16;5019824;28;20029;-56
2024/01/11 03:47:51;;;;;;;31.48;19.20;;;;;;;-5.89;82.11;103211.16;5021906;28;20025;-58
2024/01/11 03:50:17;;;;;;;35.42;19.80;;;;;;;-5.91;82.31;103206.75;5019292;28;20055;-55
2024/01/11 03:52:42;;;;;;;32.03;18.30;;;;;;;-5.91;82.75;103206.75;5020589;28;20391;-55
2024/01/11 03:55:07;;;;;;;31.05;18.88;;;;;;;-5.95;81.63;103201.50;5018727;28;20109;-56
2024/01/11 03:57:33;;;;;;;32.22;18.27;;;;;;;-5.96;82.43;103204.94;5018484;28;20115;-56
2024/01/11 03:59:58;;;;;;;29.23;17.73;;;;;;;-5.96;82.73;103204.94;5019882;28;20521;-56
2024/01/11 04:02:24;;;;;;;30.75;17.40;;;;;;;-5.93;82.71;103221.38;5020617;28;20030;-58
2024/01/11 04:04:49;;;;;;;33.75;18.48;;;;;;;-5.93;83.59;103222.25;5017563;28;20075;-54
2024/01/11 04:07:15;;;;;;;32.65;18.90;;;;;;;-5.93;82.90;103219.66;5021784;28;20034;-56
2024/01/11 04:09:40;;;;;;;32.85;19.15;;;;;;;-5.99;82.47;103212.63;5019564;28;20029;-54
2024/01/11 04:12:06;;;;;;;35.75;18.17;;;;;;;-5.99;82.27;103206.59;5020329;28;20376;-56
2024/01/11 04:14:31;;;;;;;34.40;18.58;;;;;;;-5.99;83.01;103204.00;5018618;28;20026;-56
2024/01/11 04:16:57;;;;;;;29.27;17.80;;;;;;;-5.98;82.97;103209.22;5018315;28;20025;-57
2024/01/11 04:19:23;;;;;;;34.05;18.17;;;;;;;-5.97;83.36;103223.91;5016901;28;20508;-57
2024/01/11 04:21:48;;;;;;;30.17;17.48;;;;;;;-5.94;82.24;103233.44;5016449;28;20038;-57
2024/01/11 04:24:13;;;;;;;32.25;18.42;;;;;;;-5.94;83.27;103248.97;5017726;28;20064;-54
2024/01/11 04:26:38;;;;;;;33.40;18.42;;;;;;;-5.96;82.58;103258.44;5018937;28;20036;-57
2024/01/11 04:29:04;;;;;;;30.45;17.73;;;;;;;-5.99;82.71;103251.44;5018690;28;20030;-53
2024/01/11 04:31:29;;;;;;;30.52;18.70;;;;;;;-5.96;83.29;103245.50;5022287;28;20505;-57
2024/01/11 04:33:54;;;;;;;29.25;16.63;;;;;;;-5.97;82.81;103244.59;5017436;28;20076;-55
2024/01/11 04:36:20;;;;;;;34.47;18.95;;;;;;;-5.98;83.00;103249.72;5017912;28;20033;-54
2024/01/11 04:38:45;;;;;;;29.73;17.98;;;;;;;-5.99;82.48;103251.44;5018610;28;20026;-57
2024/01/11 04:41:14;;;;;;;28.42;17.50;;;;;;;-5.99;83.39;103264.38;5021369;28;20035;-58
2024/01/11 04:43:40;;;;;;;;;;;;;;;-5.88;82.13;103263.78;5015612;28;20543;-57
2024/01/11 04:46:35;;;;;;;30.33;17.98;;;;;;;-5.96;82.94;103267.03;5022152;28;19988;-58
2024/01/11 04:49:00;;;;;;;33.63;17.15;;;;;;;-6.03;82.31;103266.81;5009555;28;20060;-56
2024/01/11 04:51:26;;;;;;;35.90;18.00;;;;;;;-6.08;82.61;103261.50;5015379;28;20046;-56
2024/01/11 04:53:51;;;;;;;33.95;18.75;;;;;;;-6.09;82.40;103256.31;5020521;28;20037;-55
2024/01/11 04:56:16;;;;;;;32.63;18.23;;;;;;;-6.10;83.41;103257.13;5016050;28;20040;-56
2024/01/11 04:58:43;;;;;;;28.92;17.48;;;;;;;-6.16;83.10;103252.59;5016785;28;20033;-53
2024/01/11 05:01:16;;;;;;;32.42;17.95;;;;;;;-6.15;84.30;103254.38;5016210;28;20076;-56
2024/01/11 05:03:42;;;;;;;32.60;19.27;;;;;;;-6.18;83.41;103255.19;5017431;28;20116;-54
2024/01/11 05:06:07;;;;;;;31.17;17.48;;;;;;;-6.17;83.88;103259.50;5017512;28;20022;-56
2024/01/11 05:08:33;;;;;;;32.60;17.02;;;;;;;-6.16;83.84;103262.97;5019975;28;20021;-56
2024/01/11 05:10:58;;;;;;;31.45;18.13;;;;;;;-6.17;83.75;103264.66;5015427;28;20069;-57
2024/01/11 05:13:24;;;;;;;30.90;18.42;;;;;;;-6.18;83.50;103264.63;5018746;28;20495;-56
2024/01/11 05:15:49;;;;;;;31.38;18.17;;;;;;;-6.22;83.46;103265.38;5014333;28;20029;-57
2024/01/11 05:18:14;;;;;;;30.30;18.40;;;;;;;-6.24;83.88;103269.63;5020374;28;20111;-58
2024/01/11 05:20:40;;;;;;;32.92;17.95;;;;;;;-6.26;84.09;103269.56;5017760;28;20072;-56
2024/01/11 05:23:06;;;;;;;30.50;17.48;;;;;;;-6.25;84.05;103273.03;5017804;28;20109;-56
2024/01/11 05:25:34;;;;;;;30.70;18.85;;;;;;;-6.26;84.37;103276.44;5019096;28;20030;-53
2024/01/11 05:28:03;;;;;;;31.57;17.47;;;;;;;-6.26;83.95;103282.50;5016175;28;20030;-57
2024/01/11 05:30:29;;;;;;;31.55;18.63;;;;;;;-6.28;84.53;103281.53;5017358;28;20049;-54
2024/01/11 05:32:54;;;;;;;28.85;17.33;;;;;;;-6.30;84.48;103282.34;5018053;28;20056;-54
2024/01/11 05:35:20;;;;;;;32.92;18.25;;;;;;;-6.32;84.49;103297.81;5019236;28;20029;-54
2024/01/11 05:37:46;;;;;;;30.77;17.65;;;;;;;-6.35;84.49;103287.34;5018655;28;20038;-56
2024/01/11 05:40:11;;;;;;;32.55;17.70;;;;;;;-6.35;84.50;103300.28;5019942;28;20402;-56
2024/01/11 05:42:37;;;;;;;33.72;18.85;;;;;;;-6.36;84.50;103302.00;5019221;28;20053;-56
2024/01/11 05:45:04;;;;;;;32.08;17.70;;;;;;;-6.37;85.20;103308.00;5018524;28;20041;-57
2024/01/11 05:47:29;;;;;;;28.75;17.52;;;;;;;-6.38;84.56;103326.03;5022419;28;20021;-57
2024/01/11 05:49:55;;;;;;;30.65;19.30;;;;;;;-6.39;85.46;103319.13;5020408;28;20489;-57
2024/01/11 05:52:20;;;;;;;31.02;17.85;;;;;;;-6.41;84.54;103320.75;5022028;28;20022;-56
2024/01/11 05:54:47;;;;;;;30.33;18.95;;;;;;;-6.44;85.17;103300.00;5021841;28;20037;-55
2024/01/11 05:57:12;;;;;;;31.92;18.20;;;;;;;-6.48;85.27;103292.94;5020468;28;20053;-56
2024/01/11 05:59:37;;;;;;;26.02;17.13;;;;;;;-6.50;84.63;103287.72;5020900;28;20026;-54
2024/01/11 06:02:03;;;;;;;32.08;18.20;;;;;;;-6.49;85.58;103291.19;5021191;28;20033;-55
2024/01/11 06:04:28;;;;;;;33.90;18.42;;;;;;;-6.52;84.64;103305.78;5023567;28;20108;-56
2024/01/11 06:06:53;;;;;;;32.88;18.70;;;;;;;-6.51;85.62;103302.38;5021026;28;20025;-55
2024/01/11 06:09:19;;;;;;;28.17;17.45;;;;;;;-6.52;85.30;103310.06;5019620;28;20164;-55
2024/01/11 06:11:44;;;;;;;30.48;18.85;;;;;;;-6.54;85.54;103311.72;5018853;28;20029;-54
2024/01/11 06:14:09;;;;;;;30.02;18.35;;;;;;;-6.55;84.95;103320.31;5024656;28;20032;-57
2024/01/11 06:16:34;;;;;;;35.25;18.42;;;;;;;-6.56;85.76;103324.59;5023192;28;20030;-54
2024/01/11 06:19:00;;;;;;;38.33;19.98;;;;;;;-6.56;85.97;103337.53;5020610;28;20052;-54
2024/01/11 06:21:25;;;;;;;33.17;19.63;;;;;;;-6.56;86.32;103340.13;5021853;28;20071;-53
2024/01/11 06:23:51;;;;;;;36.05;20.38;;;;;;;-6.59;86.52;103334.84;5021181;28;20022;-53
2024/01/11 06:26:16;;;;;;;33.65;19.90;;;;;;;-6.60;86.04;103332.19;5020549;28;20419;-57
2024/01/11 06:28:41;;;;;;;34.45;20.23;;;;;;;-6.63;86.42;103327.78;5025041;28;20034;-57
2024/01/11 06:31:09;;;;;;;32.00;19.38;;;;;;;-6.63;86.33;103326.91;5020874;28;20044;-57
2024/01/11 06:33:36;;;;;;;32.10;18.77;;;;;;;-6.63;86.01;103326.91;5024995;28;20033;-56
2024/01/11 06:36:04;;;;;;;30.30;18.02;;;;;;;-6.63;85.72;103335.53;5018046;28;20037;-55
2024/01/11 06:38:29;;;;;;;29.85;17.83;;;;;;;-6.64;86.41;103335.47;5024153;28;20029;-56
2024/01/11 06:40:54;;;;;;;31.08;18.60;;;;;;;-6.66;86.11;103327.69;5023265;28;20478;-55
2024/01/11 06:43:20;;;;;;;28.92;17.10;;;;;;;-6.69;86.32;103322.41;5022169;28;20037;-57
2024/01/11 06:45:45;;;;;;;29.35;17.45;;;;;;;-6.70;85.73;103310.31;5021303;28;20030;-55
2024/01/11 06:48:10;;;;;;;30.27;16.10;;;;;;;-6.72;85.97;103317.13;5021698;28;20044;-56
2024/01/11 06:50:36;;;;;;;28.70;16.77;;;;;;;-6.74;85.82;103330.00;5017913;28;20045;-56
2024/01/11 06:53:01;;;;;;;27.15;16.25;;;;;;;-6.72;86.26;103336.09;5019968;28;20041;-57
2024/01/11 06:55:27;;;;;;;27.77;16.73;;;;;;;-6.72;86.00;103333.53;5016838;28;20033;-53
2024/01/11 06:57:52;;;;;;;28.13;17.48;;;;;;;-6.73;86.43;103336.94;5013840;28;20034;-56
2024/01/11 07:00:18;;;;;;;33.53;17.52;;;;;;;-6.76;86.37;103344.59;5020713;28;20033;-53
2024/01/11 07:02:45;;;;;;;30.25;17.35;;;;;;;-6.78;86.14;103342.75;5023498;28;20096;-55
2024/01/11 07:05:12;;;;;;;30.75;17.10;;;;;;;-6.80;86.40;103350.44;5024095;28;20379;-54
2024/01/11 07:07:37;;;;;;;31.63;18.23;;;;;;;-6.83;86.78;103352.91;5020749;28;20021;-55
2024/01/11 07:10:05;;;;;;;31.02;18.55;;;;;;;-6.83;86.51;103352.91;5017230;28;20034;-53
2024/01/11 07:12:30;;;;;;;27.42;17.75;;;;;;;-6.86;86.85;103344.19;5015347;28;20030;-54
2024/01/11 07:14:56;;;;;;;53.25;31.83;;;;;;;-6.89;86.62;103350.13;5017339;28;20474;-56
2024/01/11 07:17:22;;;;;;;45.92;25.98;;;;;;;-6.89;87.29;103355.31;5016999;28;20018;-55
2024/01/11 07:19:48;;;;;;;34.30;19.58;;;;;;;-6.86;87.51;103370.03;5018897;28;20121;-53
2024/01/11 07:22:13;;;;;;;37.42;18.08;;;;;;;-6.84;88.10;103370.94;5016173;28;20112;-55
2024/01/11 07:24:39;;;;;;;33.10;17.55;;;;;;;-6.86;88.21;103365.75;5017682;28;20041;-56
2024/01/11 07:27:07;;;;;;;29.83;16.83;;;;;;;-6.84;87.58;103361.53;5019651;28;20273;-55
2024/01/11 07:29:35;;;;;;;32.08;17.33;;;;;;;-6.85;87.54;103369.22;5016271;28;20029;-56
2024/01/11 07:32:01;;;;;;;27.67;16.02;;;;;;;-6.90;87.47;103369.91;5021774;28;20037;-57
2024/01/11 07:34:27;;;;;;;28.70;16.15;;;;;;;-6.95;87.13;103366.28;5011877;28;20029;-55
2024/01/11 07:36:53;;;;;;;29.67;16.17;;;;;;;-6.97;87.61;103375.69;5013528;28;20375;-55
2024/01/11 07:39:19;;;;;;;30.13;16.45;;;;;;;-7.00;87.80;103378.16;5016725;28;20045;-55
2024/01/11 07:41:44;;;;;;;25.98;15.48;;;;;;;-7.02;87.94;103376.34;5021822;28;20029;-54
2024/01/11 07:44:09;;;;;;;33.35;16.55;;;;;;;-7.04;88.28;103378.88;5015660;28;20434;-58
2024/01/11 07:46:34;;;;;;;32.63;16.98;;;;;;;-7.08;88.22;103369.22;5021217;28;20029;-55
2024/01/11 07:49:00;;;;;;;30.58;17.17;;;;;;;-7.12;88.32;103364.78;5021036;28;20038;-55
2024/01/11 07:51:26;;;;;;;33.85;18.38;;;;;;;-7.15;88.76;103362.09;5019909;28;20037;-55
2024/01/11 07:53:51;;;;;;;32.22;17.73;;;;;;;-7.18;89.12;103362.84;5017193;28;20029;-56
2024/01/11 07:56:17;;;;;;;28.85;17.30;;;;;;;-7.18;89.19;103374.88;5018283;28;20029;-53
2024/01/11 07:58:42;;;;;;;32.08;18.85;;;;;;;-7.19;88.77;103379.19;5016479;28;20037;-55
2024/01/11 08:01:09;;;;;;;34.83;18.80;;;;;;;-7.22;89.60;103381.63;5019088;28;20029;-55
2024/01/11 08:03:34;;;;;;;31.70;18.05;;;;;;;-7.21;88.81;103386.00;5021564;28;20554;-56
2024/01/11 08:06:00;;;;;;;30.52;17.92;;;;;;;-7.22;89.76;103385.94;5020909;28;20030;-56
2024/01/11 08:08:26;;;;;;;31.02;17.73;;;;;;;-7.22;89.35;103379.06;5018398;28;20026;-55
2024/01/11 08:10:51;;;;;;;27.05;16.70;;;;;;;-7.24;89.73;103372.97;5015114;28;20032;-55
2024/01/11 08:13:17;;;;;;;30.10;16.77;;;;;;;-7.23;90.14;103364.38;5023112;28;20459;-55
2024/01/11 08:15:43;;;;;;;27.35;17.75;;;;;;;-7.22;90.21;103375.59;5005887;28;20030;-52
2024/01/11 08:18:08;;;;;;;27.30;17.42;;;;;;;-7.24;90.14;103365.22;5014732;28;20049;-52
2024/01/11 08:20:34;;;;;;;28.15;16.75;;;;;;;-7.23;90.10;103361.78;5022559;28;20025;-55
2024/01/11 08:22:59;;;;;;;26.05;16.20;;;;;;;-7.22;89.95;103358.41;5021030;28;20030;-53
2024/01/11 08:25:24;;;;;;;30.50;17.70;;;;;;;-7.19;89.85;103347.28;5018548;28;20108;-55
2024/01/11 08:27:50;;;;;;;31.75;17.95;;;;;;;-7.19;90.59;103348.19;5016683;28;20025;-54
2024/01/11 08:30:15;;;;;;;31.80;18.17;;;;;;;-7.18;90.89;103346.47;5019896;28;20064;-55
2024/01/11 08:32:41;;;;;;;27.85;17.02;;;;;;;-7.17;91.11;103359.44;5020606;28;20058;-55
2024/01/11 08:35:09;;;;;;;29.38;16.80;;;;;;;-7.14;90.76;103361.28;5022159;28;20096;-54
2024/01/11 08:37:35;;;;;;;29.15;18.27;;;;;;;-7.12;90.87;103354.47;5016609;28;20034;-54
2024/01/11 08:40:01;;;;;;;28.02;17.52;;;;;;;-7.11;91.57;103356.19;5012115;28;20068;-55
2024/01/11 08:42:26;;;;;;;32.97;19.85;;;;;;;-7.08;91.67;103366.66;5015425;28;20017;-55
2024/01/11 08:44:52;;;;;;;35.83;20.30;;;;;;;-7.04;92.13;103368.53;5014855;28;20097;-56
2024/01/11 08:47:17;;;;;;;36.90;20.27;;;;;;;-7.00;91.93;103366.94;5014149;28;20026;-56
2024/01/11 08:49:43;;;;;;;33.17;19.55;;;;;;;-6.98;92.64;103361.00;5013812;28;20072;-54
2024/01/11 08:52:08;;;;;;;34.05;19.38;;;;;;;-6.94;93.15;103359.44;5015489;28;20522;-53
2024/01/11 08:54:33;;;;;;;28.50;18.65;;;;;;;-6.90;93.23;103367.31;5019282;28;20030;-56
2024/01/11 08:57:00;;;;;;;34.25;18.80;;;;;;;-6.84;93.67;103364.09;5019505;28;20026;-56
2024/01/11 08:59:25;;;;;;;37.20;20.08;;;;;;;-6.77;94.09;103367.78;5020825;28;20548;-56
2024/01/11 09:01:51;;;;;;;29.63;19.02;;;;;;;-6.71;94.20;103375.75;5012328;28;20160;-53
2024/01/11 09:04:18;;;;;;;31.70;18.02;;;;;;;-6.62;95.33;103385.56;5013641;28;20088;-55
2024/01/11 09:06:43;;;;;;;30.27;17.17;;;;;;;-6.53;95.35;103388.44;5016757;28;20037;-52
2024/01/11 09:09:10;;;;;;;33.03;17.58;;;;;;;-6.43;95.92;103394.81;5014678;28;20022;-56
2024/01/11 09:11:35;;;;;;;29.33;17.63;;;;;;;-6.32;96.31;103388.31;5013259;28;20064;-56
2024/01/11 09:14:02;;;;;;;28.55;17.95;;;;;;;-6.22;95.91;103392.97;5021317;28;20033;-56
2024/01/11 09:16:28;;;;;;;29.10;17.65;;;;;;;-6.09;95.91;103398.59;5019027;28;20018;-55
2024/01/11 09:18:53;;;;;;;28.95;17.92;;;;;;;-5.99;95.84;103387.72;5017372;28;20072;-55
2024/01/11 09:21:19;;;;;;;27.33;17.08;;;;;;;-5.86;95.46;103394.13;5017942;28;20026;-54
2024/01/11 09:23:44;;;;;;;28.45;16.90;;;;;;;-5.73;95.43;103398.00;5011326;28;20034;-54
2024/01/11 09:26:10;;;;;;;30.70;17.85;;;;;;;-5.60;95.41;103390.66;5018810;28;20037;-56
2024/01/11 09:28:35;;;;;;;27.95;18.05;;;;;;;-5.45;95.02;103397.16;5015421;28;20132;-54
2024/01/11 09:31:01;;;;;;;28.75;18.30;;;;;;;-5.31;95.04;103394.97;5015506;28;20030;-56
2024/01/11 09:33:27;;;;;;;31.48;18.50;;;;;;;-5.17;94.99;103400.59;5017384;28;20438;-57
2024/01/11 09:35:54;;;;;;;29.02;17.95;;;;;;;-5.04;94.23;103398.41;5015937;28;20034;-54
2024/01/11 09:38:20;;;;;;;30.45;17.33;;;;;;;-4.88;94.14;103411.81;5017144;28;20057;-57
2024/01/11 09:40:45;;;;;;;32.22;19.63;;;;;;;-4.74;93.43;103412.22;5017298;28;20084;-56
2024/01/11 09:43:10;;;;;;;29.17;18.27;;;;;;;-4.59;93.65;103415.25;5014945;28;20022;-56
2024/01/11 09:45:37;;;;;;;32.47;18.20;;;;;;;-4.48;93.21;103416.44;5019405;28;20379;-55
2024/01/11 09:48:06;;;;;;;31.27;18.73;;;;;;;-4.35;92.07;103428.00;5012054;28;20382;-54
2024/01/11 09:50:31;;;;;;;30.92;18.67;;;;;;;-4.22;91.28;103426.63;5015003;28;20042;-55
2024/01/11 09:52:58;;;;;;;28.58;18.02;;;;;;;-4.11;90.88;103432.09;5014389;28;20022;-56
2024/01/11 09:55:23;;;;;;;31.45;18.67;;;;;;;-4.00;90.46;103435.81;5017512;28;20045;-55
2024/01/11 09:57:52;;;;;;;30.83;18.27;;;;;;;-3.85;90.50;103435.34;5016222;28;20018;-55
2024/01/11 10:00:21;;;;;;;28.60;17.95;;;;;;;-3.72;89.78;103437.41;5018741;28;20033;-54
2024/01/11 10:02:47;;;;;;;;;;;;;;;-3.59;89.48;103440.31;5011572;28;20241;-56
2024/01/11 10:05:13;;;;;;;28.48;17.33;;;;;;;-3.45;89.38;103440.63;5016963;28;20293;-55
2024/01/11 10:07:39;;;;;;;26.63;17.40;;;;;;;-3.33;88.56;103437.44;5009363;28;20490;-54
2024/01/11 10:10:06;;;;;;;32.30;19.33;;;;;;;-3.22;87.38;103441.19;5011688;28;20042;-52
2024/01/11 10:12:34;;;;;;;27.88;18.00;;;;;;;-3.16;86.05;103438.72;5011245;28;20041;-52
2024/01/11 10:15:10;;;;;;;30.20;18.17;;;;;;;-3.06;85.76;103442.41;5019500;28;20034;-53
2024/01/11 10:17:45;;;;;;;31.25;17.42;;;;;;;-2.95;86.07;103445.22;5017320;28;20405;-53
2024/01/11 10:20:13;;;;;;;29.25;17.75;;;;;;;-2.85;85.67;103444.56;5012444;28;20030;-46
2024/01/11 10:22:40;;;;;;;31.55;18.83;;;;;;;-2.74;84.92;103445.69;5018509;28;20083;-46
2024/01/11 10:25:16;;;;;;;32.15;18.35;;;;;;;-2.67;84.01;103442.34;5012480;28;20022;-46
2024/01/11 10:27:44;;;;;;;31.63;18.85;;;;;;;-2.54;83.27;103447.81;5014976;28;20038;-47
2024/01/11 10:30:12;;;;;;;27.70;17.83;;;;;;;-2.47;82.23;103445.34;5018330;28;20464;-47
2024/01/11 10:32:38;;;;;;;30.77;18.65;;;;;;;-2.36;82.52;103449.91;5022267;28;20091;-48
2024/01/11 10:35:04;;;;;;;31.00;17.58;;;;;;;-2.32;80.93;103441.31;5013197;28;20128;-48
2024/01/11 10:37:32;;;;;;;29.67;17.52;;;;;;;-2.21;81.70;103441.50;5020977;28;20037;-47
2024/01/11 10:39:58;;;;;;;32.08;19.38;;;;;;;-2.12;81.03;103444.28;5019010;28;20109;-49
2024/01/11 10:42:26;;;;;;;27.25;17.88;;;;;;;-1.98;81.34;103447.13;5019213;28;20026;-48
2024/01/11 10:44:55;;;;;;;33.10;19.55;;;;;;;-1.90;78.95;103450.75;5019421;28;20740;-48
2024/01/11 10:47:24;;;;;;;32.03;18.77;;;;;;;-1.85;78.27;103464.72;5019759;28;20029;-47
2024/01/11 10:49:52;;;;;;;28.70;17.83;;;;;;;-1.84;78.64;103448.25;5007489;28;20285;-48
2024/01/11 10:52:22;;;;;;;27.90;17.92;;;;;;;-1.76;78.61;103440.59;5020419;28;20082;-47
2024/01/11 10:54:49;;;;;;;30.98;18.83;;;;;;;-1.70;77.88;103446.78;5022365;28;20044;-48
2024/01/11 10:57:15;;;;;;;30.05;19.15;;;;;;;-1.63;77.46;103446.84;5017711;28;20057;-48
2024/01/11 10:59:43;;;;;;;34.25;19.42;;;;;;;-1.55;78.35;103438.31;5020321;28;20045;-48
2024/01/11 11:02:12;;;;;;;28.88;18.58;;;;;;;-1.46;77.43;103439.31;5014075;28;20057;-48
2024/01/11 11:04:40;;;;;;;29.90;20.08;;;;;;;-1.36;76.18;103438.59;5017628;28;20024;-47